Wilmington, NC (28411)

5:11 PM EDT on August 30, 2015 (GMT -0400)
Woodlawn | | Change Station
CLOSE
Current Station
Personal Weather Station
Location: Wilmington, NC
Elevation: 30 ft
Nearby Weather Stations

Elev 30 ft 34.21 °N, 77.94 °W | Updated 1 second ago

Overcast
Overcast
79.3 °F
Feels Like 81 °F
N
0.0
Wind Variable Wind from NE
Gusts 0.0 mph

Today
High -- | Low -- °F
--% Chance of Precip.
Yesterday
High -- | Low -- °F
Precip. -- in
6:43 AM 7:40 PM
Full, 98% visible
Pressure 30.14 in
Visibility 10.0 miles
Clouds Few 4800 ft
Scattered Clouds 9500 ft
Mostly Cloudy 12000 ft
Heat Index 81 °F
Dew Point 66 °F
Humidity 63%
Rainfall 0.05 in
Snow Depth Not available.
UV 1.0 out of 12
Pollen 6.90 out of 12
Air Quality Not available.
Flu Activity Not available.
METAR KILM 302053Z 09003KT 10SM FEW048 SCT095 BKN120 26/19 A3014 RMK AO2 RAB07E19 SLP205 P0001 60001 T02610189 55003
Pressure 30.14 in
Visibility 10.0 miles
Clouds Few 4800 ft
Scattered Clouds 9500 ft
Mostly Cloudy 12000 ft
Heat Index 81 °F
Dew Point 66 °F
Humidity 63%
Rainfall 0.05 in
Snow Depth Not available.
UV 1.0 out of 12
Pollen 6.90 out of 12
Air Quality Not available.
Flu Activity Not available.
METAR KILM 302053Z 09003KT 10SM FEW048 SCT095 BKN120 26/19 A3014 RMK AO2 RAB07E19 SLP205 P0001 60001 T02610189 55003

10-Day Weather Forecast

×

Almanac

Astronomy

Aug. 30, 2015 Rise Set
Actual Time
Civil Twilight
Nautical Twilight
Astronomical Twilight
Moon
Length of Visible Light
Length of Day
Tomorrow will be .
, % of the Moon is Illuminated

Today's Extremes

State Highs State Lows

Community

WunderPhotos

Upload Photos

1,851,062 photos uploaded!

WunderBlogs® & News

Nearby

Air Quality

  Air Quality AQ Index Pollutant
Not available.

Snow Depth

Station Depth Elevation

Earthquake Activity

City Distance Mag. Time & Date
Minimum magnitude displayed is 2.5.

Coastal Water Temperatures

Place Temperature

Stations

Nearby Weather Stations

Station Location Temp. Windchill Dew Point Humidity Wind Precip. Elev Updated Type